Aviation Digital Data Service (ADDS)

Output produced by METARs form (1530 UTC 17 November 2019)
found at http://aviationweather.gov/metar/data/
 
METAR text: KARR 171452Z 17006KT 5SM BR CLR M01/M02 A3003 RMK AO2 SLP178 T10061022 55016
Conditions at: KARR (CHICAGO/AURORA , IL, US) observed 1452 UTC 17 November 2019
Temperature: -0.6°C (31°F)
Dewpoint: -2.2°C (28°F) [RH = 89%]
Pressure (altimeter): 30.03 inches Hg (1017.0 mb)
[Sea-level pressure: 1017.8 mb]
Winds: from the S (170 degrees) at 7 MPH (6 knots; 3.1 m/s)
Visibility: 5 miles ( 8 km)
Ceiling: at least 12,000 feet AGL
Clouds: sky clear below 12,000 feet AGL
Weather: BR  (mist)